Time;durP1;ratioP1;P1;durP2;ratioP2;P2;SDS_P1;SDS_P2;PMS_P1;PMS_P2;Temp;Humidity;BMP_temperature;BMP_pressure;BME280_temperature;BME280_humidity;BME280_pressure;Samples;Min_cycle;Max_cycle;Signal;HPM_P1;HPM_P2
2023/01/22 00:02:21;;;;;;;28.88;15.23;;;-0.80;99.90;;;;;;5049168;28;20035;-53
2023/01/22 00:04:47;;;;;;;32.92;15.18;;;-0.80;99.90;;;;;;5050370;28;20032;-47
2023/01/22 00:07:14;;;;;;;32.88;16.00;;;-0.80;99.90;;;;;;5050565;28;20391;-48
2023/01/22 00:09:40;;;;;;;32.58;15.70;;;-0.70;99.90;;;;;;5050782;28;20040;-51
2023/01/22 00:12:06;;;;;;;36.88;17.35;;;-0.60;99.90;;;;;;5050333;28;20027;-45
2023/01/22 00:14:32;;;;;;;35.80;16.95;;;-0.60;99.90;;;;;;5050544;28;20044;-47
2023/01/22 00:16:58;;;;;;;32.22;16.42;;;-0.70;99.90;;;;;;5050657;28;20480;-49
2023/01/22 00:19:23;;;;;;;35.13;16.73;;;-0.80;99.90;;;;;;5050206;28;20068;-46
2023/01/22 00:21:49;;;;;;;33.65;15.95;;;-0.80;99.90;;;;;;5049942;28;20029;-49
2023/01/22 00:24:15;;;;;;;38.97;17.35;;;-0.90;99.90;;;;;;5050191;28;20017;-53
2023/01/22 00:26:41;;;;;;;37.45;15.77;;;-0.90;99.90;;;;;;5050355;28;20422;-47
2023/01/22 00:29:07;;;;;;;33.97;15.05;;;-0.90;99.90;;;;;;5049594;28;20049;-55
2023/01/22 00:31:32;;;;;;;34.63;16.55;;;-1.00;99.90;;;;;;5050053;28;20388;-46
2023/01/22 00:33:58;;;;;;;30.27;15.48;;;-0.90;99.90;;;;;;5053144;28;20028;-51
2023/01/22 00:36:23;;;;;;;31.23;14.88;;;-1.00;99.90;;;;;;5053525;28;20384;-46
2023/01/22 00:38:49;;;;;;;36.63;15.82;;;-1.00;99.90;;;;;;5053808;28;20096;-49
2023/01/22 00:41:16;;;;;;;33.97;15.52;;;-1.00;99.90;;;;;;5053599;28;20029;-46
2023/01/22 00:43:42;;;;;;;30.63;14.55;;;-1.00;99.90;;;;;;5053574;28;20048;-54
2023/01/22 00:46:10;;;;;;;32.05;17.10;;;-1.00;99.90;;;;;;5053371;28;20025;-47
2023/01/22 00:48:36;;;;;;;32.17;14.60;;;-1.20;99.90;;;;;;5053186;28;20045;-48
2023/01/22 00:51:01;;;;;;;29.50;15.65;;;-1.20;99.90;;;;;;5053240;28;20041;-46
2023/01/22 00:53:27;;;;;;;34.03;16.20;;;-1.20;99.90;;;;;;5053244;28;20112;-49
2023/01/22 00:55:58;;;;;;;27.83;15.45;;;-1.20;99.90;;;;;;5053291;28;20076;-48
2023/01/22 00:58:24;;;;;;;31.40;15.30;;;-1.10;99.90;;;;;;5053154;28;20039;-46
2023/01/22 01:00:50;;;;;;;29.23;15.07;;;-1.10;99.90;;;;;;5053355;28;20068;-50
2023/01/22 01:03:25;;;;;;;32.13;15.80;;;-1.10;99.90;;;;;;5053098;28;20033;-52
2023/01/22 01:05:55;;;;;;;33.05;15.07;;;-1.20;99.90;;;;;;5052971;28;20100;-51
2023/01/22 01:08:21;;;;;;;34.13;16.10;;;-1.20;99.90;;;;;;5051716;28;20405;-48
2023/01/22 01:10:47;;;;;;;30.52;14.98;;;-1.20;99.90;;;;;;5052857;28;20033;-47
2023/01/22 01:13:13;;;;;;;34.08;14.80;;;-1.10;99.90;;;;;;5053250;28;20021;-48
2023/01/22 01:15:39;;;;;;;32.33;15.02;;;-1.10;99.90;;;;;;5052983;28;20025;-45
2023/01/22 01:18:04;;;;;;;35.40;19.35;;;-1.00;99.90;;;;;;5053032;28;20049;-51
2023/01/22 01:20:30;;;;;;;26.75;14.65;;;-1.10;99.90;;;;;;5053113;28;20036;-48
2023/01/22 01:22:56;;;;;;;31.67;15.48;;;-1.00;99.90;;;;;;5053087;28;20426;-48
2023/01/22 01:25:21;;;;;;;33.17;16.95;;;-1.00;99.90;;;;;;5052636;28;20043;-50
2023/01/22 01:27:47;;;;;;;33.90;15.27;;;-1.10;99.90;;;;;;5052296;28;20432;-46
2023/01/22 01:30:14;;;;;;;32.50;15.77;;;-1.10;99.90;;;;;;5051989;28;20041;-51
2023/01/22 01:32:39;;;;;;;27.02;14.60;;;-1.10;99.90;;;;;;5052106;28;20503;-47
2023/01/22 01:35:05;;;;;;;32.92;15.13;;;-1.10;99.90;;;;;;5051790;28;20025;-47
2023/01/22 01:37:31;;;;;;;34.55;17.77;;;-1.10;99.90;;;;;;5052622;28;20384;-45
2023/01/22 01:39:56;;;;;;;35.45;17.27;;;-1.10;99.90;;;;;;5052309;28;20049;-48
2023/01/22 01:42:30;;;;;;;30.17;14.40;;;-1.00;99.90;;;;;;5052412;28;20033;-46
2023/01/22 01:45:28;;;;;;;35.40;15.98;;;-0.90;99.90;;;;;;5051559;28;20029;-46
2023/01/22 01:48:00;;;;;;;34.47;16.17;;;-0.90;99.90;;;;;;5051295;28;20488;-46
2023/01/22 01:50:27;;;;;;;27.70;14.32;;;-0.80;99.90;;;;;;5052051;28;20072;-49
2023/01/22 01:52:54;;;;;;;26.77;13.90;;;-0.70;99.90;;;;;;5050836;28;20780;-48
2023/01/22 01:55:26;;;;;;;30.00;14.57;;;-0.80;99.90;;;;;;5051968;28;20207;-46
2023/01/22 01:57:54;;;;;;;31.17;15.23;;;-0.90;99.90;;;;;;5052085;28;20061;-47
2023/01/22 02:00:20;;;;;;;33.92;15.13;;;-0.90;99.90;;;;;;5051133;28;20079;-46
2023/01/22 02:02:47;;;;;;;29.27;13.77;;;-0.90;99.90;;;;;;5051912;28;20021;-47
2023/01/22 02:05:13;;;;;;;26.70;14.05;;;-1.00;99.90;;;;;;5051569;28;20036;-45
2023/01/22 02:07:39;;;;;;;35.38;16.02;;;-1.10;99.90;;;;;;5051762;28;20032;-45
2023/01/22 02:10:05;;;;;;;29.00;13.55;;;-1.10;99.90;;;;;;5051603;28;20511;-45
2023/01/22 02:12:34;;;;;;;28.63;13.82;;;-1.10;99.90;;;;;;5050889;28;20025;-46
2023/01/22 02:15:02;;;;;;;27.80;13.60;;;-1.00;99.90;;;;;;5051312;28;20033;-46
2023/01/22 02:17:28;;;;;;;30.52;14.77;;;-1.10;99.90;;;;;;5051441;28;20029;-45
2023/01/22 02:19:54;;;;;;;32.65;13.77;;;-1.00;99.90;;;;;;5051541;28;20025;-50
2023/01/22 02:22:22;;;;;;;28.33;13.65;;;-0.90;99.90;;;;;;5051238;28;20035;-49
2023/01/22 02:24:49;;;;;;;24.92;13.20;;;-0.80;99.90;;;;;;5051067;28;20116;-51
2023/01/22 02:27:15;;;;;;;27.52;13.02;;;-0.90;99.90;;;;;;5051493;28;20068;-49
2023/01/22 02:29:40;;;;;;;35.95;15.43;;;-0.90;99.90;;;;;;5051268;28;20068;-51
2023/01/22 02:32:06;;;;;;;31.30;15.23;;;-0.80;99.90;;;;;;5051188;28;20021;-52
2023/01/22 02:34:32;;;;;;;25.95;14.32;;;-0.80;99.90;;;;;;5050838;28;20025;-50
2023/01/22 02:36:58;;;;;;;27.80;14.90;;;-0.70;99.90;;;;;;5051377;28;20400;-45
2023/01/22 02:39:23;;;;;;;32.38;15.77;;;-0.70;99.90;;;;;;5051117;28;20039;-48
2023/01/22 02:41:49;;;;;;;29.42;15.13;;;-0.60;99.90;;;;;;5050828;28;20029;-51
2023/01/22 02:44:15;;;;;;;32.08;14.48;;;-0.50;99.90;;;;;;5049681;28;20052;-45
2023/01/22 02:46:41;;;;;;;29.35;15.57;;;-0.40;99.90;;;;;;5050680;28;20419;-50
2023/01/22 02:49:06;;;;;;;26.45;13.75;;;-0.30;99.90;;;;;;5050916;28;20055;-48
2023/01/22 02:51:32;;;;;;;27.52;14.20;;;-0.20;99.90;;;;;;5050878;28;20036;-50
2023/01/22 02:53:58;;;;;;;27.48;13.10;;;-0.10;99.90;;;;;;5050971;28;20392;-48
2023/01/22 02:56:24;;;;;;;28.42;12.93;;;-0.10;99.90;;;;;;5049745;28;20025;-45
2023/01/22 02:58:52;;;;;;;28.15;13.98;;;0.00;99.90;;;;;;5050935;28;20025;-50
2023/01/22 03:01:20;;;;;;;32.28;13.70;;;0.10;99.90;;;;;;5050643;28;20079;-45
2023/01/22 03:04:08;;;;;;;22.48;12.68;;;0.10;99.90;;;;;;5050107;28;20488;-48
2023/01/22 03:06:33;;;;;;;25.33;13.20;;;0.20;99.90;;;;;;5049239;28;20392;-48
2023/01/22 03:08:59;;;;;;;25.27;14.10;;;0.20;99.90;;;;;;5050440;28;20035;-49
2023/01/22 03:11:28;;;;;;;27.38;13.60;;;0.20;99.90;;;;;;5050406;28;20068;-44
2023/01/22 03:22:09;;;;;;;31.33;14.52;;;0.30;99.90;;;;;;5050549;28;20494;-46
2023/01/22 03:24:35;;;;;;;25.77;13.50;;;0.30;99.90;;;;;;5047542;28;20053;-47
2023/01/22 03:27:02;;;;;;;23.20;13.02;;;0.10;99.90;;;;;;5050163;28;20025;-48
2023/01/22 03:29:27;;;;;;;27.63;14.18;;;-0.10;99.90;;;;;;5050147;28;20079;-48
2023/01/22 03:31:53;;;;;;;30.50;14.13;;;-0.10;99.90;;;;;;5050331;28;20493;-50
2023/01/22 03:34:23;;;;;;;24.27;13.43;;;-0.10;99.90;;;;;;5049915;28;20037;-48
2023/01/22 03:36:49;;;;;;;28.25;14.50;;;0.00;99.90;;;;;;5050591;28;20162;-48
2023/01/22 03:39:14;;;;;;;28.08;13.30;;;0.00;99.90;;;;;;5050329;28;20035;-53
2023/01/22 03:41:40;;;;;;;28.67;14.55;;;0.10;99.90;;;;;;5050319;28;20107;-57
2023/01/22 03:44:10;;;;;;;35.42;15.18;;;0.10;99.90;;;;;;5050484;28;20029;-53
2023/01/22 03:46:38;;;;;;;28.45;14.18;;;0.00;99.90;;;;;;5050384;28;20122;-50
2023/01/22 03:49:03;;;;;;;28.20;13.93;;;0.00;99.90;;;;;;5048873;28;20032;-48
2023/01/22 03:51:29;;;;;;;25.80;13.63;;;0.00;99.90;;;;;;5049972;28;20372;-48
2023/01/22 03:53:54;;;;;;;25.05;13.02;;;0.10;99.90;;;;;;5050031;28;20021;-48
2023/01/22 03:56:21;;;;;;;23.33;12.70;;;0.20;99.90;;;;;;5049461;28;20060;-48
2023/01/22 03:58:48;;;;;;;22.98;13.18;;;0.20;99.90;;;;;;5048884;28;20013;-49
2023/01/22 04:01:20;;;;;;;24.58;12.40;;;0.30;99.90;;;;;;5049929;28;20104;-47
2023/01/22 04:03:46;;;;;;;26.73;13.85;;;0.30;99.90;;;;;;5049915;28;20029;-47
2023/01/22 04:06:12;;;;;;;28.17;14.43;;;0.30;99.90;;;;;;5051213;28;20040;-45
2023/01/22 04:08:40;;;;;;;26.75;14.32;;;0.30;99.90;;;;;;5053713;28;20435;-44
2023/01/22 04:11:06;;;;;;;21.98;12.40;;;0.20;99.90;;;;;;5057296;28;20083;-50
2023/01/22 04:13:33;;;;;;;25.42;12.80;;;0.20;99.90;;;;;;5072953;28;20021;-44
2023/01/22 04:15:59;;;;;;;23.73;12.55;;;0.20;99.90;;;;;;5059547;28;20031;-50
2023/01/22 04:18:25;;;;;;;24.50;13.05;;;0.30;99.90;;;;;;5062620;28;20028;-49
2023/01/22 04:20:51;;;;;;;24.25;12.48;;;0.30;99.90;;;;;;5057865;28;20044;-45
2023/01/22 04:23:17;;;;;;;26.65;13.38;;;0.40;99.90;;;;;;5057622;28;20028;-48
2023/01/22 04:25:43;;;;;;;23.42;13.20;;;0.40;99.90;;;;;;5055193;28;20031;-50
2023/01/22 04:28:09;;;;;;;25.35;14.00;;;0.40;99.90;;;;;;5056845;28;20099;-51
2023/01/22 04:30:36;;;;;;;23.00;12.77;;;0.50;99.90;;;;;;5058751;28;20143;-45
2023/01/22 04:33:02;;;;;;;26.45;13.85;;;0.50;99.90;;;;;;5070268;28;20024;-46
2023/01/22 04:35:28;;;;;;;26.88;14.02;;;0.40;99.90;;;;;;5053004;28;20028;-44
2023/01/22 04:37:54;;;;;;;29.63;14.07;;;0.50;99.90;;;;;;5055621;28;20029;-44
2023/01/22 04:40:19;;;;;;;27.65;13.50;;;0.50;99.90;;;;;;5065911;28;20025;-46
2023/01/22 04:42:45;;;;;;;25.67;13.23;;;0.50;99.90;;;;;;5064440;28;20070;-46
2023/01/22 04:45:11;;;;;;;25.20;12.93;;;0.50;99.90;;;;;;5059392;28;20024;-49
2023/01/22 04:47:42;;;;;;;23.83;14.07;;;0.60;99.90;;;;;;5061550;28;20071;-47
2023/01/22 04:50:16;;;;;;;29.45;15.27;;;0.50;99.90;;;;;;5071243;28;20033;-48
2023/01/22 04:52:42;;;;;;;25.65;12.70;;;0.50;99.90;;;;;;5070441;28;20021;-47
2023/01/22 04:55:08;;;;;;;28.88;13.48;;;0.40;99.90;;;;;;5057388;28;20028;-50
2023/01/22 04:57:34;;;;;;;26.58;13.43;;;0.50;99.90;;;;;;5066197;28;20403;-44
2023/01/22 05:00:00;;;;;;;23.05;13.48;;;0.50;99.90;;;;;;5059127;28;20063;-49
2023/01/22 05:02:25;;;;;;;23.60;12.43;;;0.50;99.90;;;;;;5059320;28;20036;-50
2023/01/22 05:04:51;;;;;;;25.65;12.40;;;0.60;99.90;;;;;;5062080;28;20036;-48
2023/01/22 05:07:17;;;;;;;23.88;12.32;;;0.50;99.90;;;;;;5070158;28;20434;-51
2023/01/22 05:09:43;;;;;;;23.90;12.70;;;0.50;99.90;;;;;;5071394;28;20032;-47
2023/01/22 05:12:08;;;;;;;22.50;12.25;;;0.60;99.90;;;;;;5057332;28;20052;-49
2023/01/22 05:14:34;;;;;;;21.38;11.52;;;0.60;99.90;;;;;;5064597;28;20428;-45
2023/01/22 05:16:59;;;;;;;23.75;12.77;;;0.60;99.90;;;;;;5055898;28;20143;-51
2023/01/22 05:19:25;;;;;;;25.88;13.77;;;0.60;99.90;;;;;;5072129;28;20017;-48
2023/01/22 05:21:51;;;;;;;25.50;11.98;;;0.60;99.90;;;;;;5072796;28;20376;-52
2023/01/22 05:24:17;;;;;;;30.50;13.68;;;0.60;99.90;;;;;;5072697;28;20024;-47
2023/01/22 05:26:43;;;;;;;26.33;13.35;;;0.60;99.90;;;;;;5059128;28;20029;-46
2023/01/22 05:29:09;;;;;;;22.50;11.82;;;0.60;99.90;;;;;;5068537;28;20033;-52
2023/01/22 05:31:35;;;;;;;23.67;12.68;;;0.50;99.90;;;;;;5057621;28;20056;-50
2023/01/22 05:34:00;;;;;;;23.67;12.30;;;0.50;99.90;;;;;;5053109;28;20029;-50
2023/01/22 05:36:26;;;;;;;25.83;12.70;;;0.50;99.90;;;;;;5066714;28;20171;-52
2023/01/22 05:38:52;;;;;;;24.38;12.35;;;0.50;99.90;;;;;;5059505;28;20021;-44
2023/01/22 05:41:18;;;;;;;24.48;11.73;;;0.50;99.90;;;;;;5065719;28;20028;-47
2023/01/22 05:43:43;;;;;;;23.75;12.00;;;0.50;99.90;;;;;;5051997;28;20434;-44
2023/01/22 05:46:09;;;;;;;32.42;15.07;;;0.60;99.90;;;;;;5058340;28;20025;-52
2023/01/22 05:48:35;;;;;;;25.65;15.05;;;0.60;99.90;;;;;;5054179;28;20510;-55
2023/01/22 05:51:05;;;;;;;30.42;15.13;;;0.50;99.90;;;;;;5051464;28;20124;-49
2023/01/22 05:53:32;;;;;;;31.52;15.75;;;0.30;99.90;;;;;;5052227;28;20051;-46
2023/01/22 05:56:02;;;;;;;29.35;16.30;;;0.40;99.90;;;;;;5056095;28;20029;-46
2023/01/22 05:58:28;;;;;;;28.45;15.40;;;0.40;99.90;;;;;;5051732;28;20443;-52
2023/01/22 06:00:54;;;;;;;25.40;14.35;;;0.40;99.90;;;;;;5050909;28;20526;-52
2023/01/22 06:03:20;;;;;;;26.85;14.35;;;0.40;99.90;;;;;;5050743;28;20013;-46
2023/01/22 06:05:46;;;;;;;26.70;15.85;;;0.30;99.90;;;;;;5051487;28;20051;-52
2023/01/22 06:08:11;;;;;;;30.17;15.40;;;0.30;99.90;;;;;;5050925;28;20025;-45
2023/01/22 06:10:37;;;;;;;26.50;15.52;;;0.30;99.90;;;;;;5051539;28;20099;-54
2023/01/22 06:13:03;;;;;;;26.85;14.90;;;0.20;99.90;;;;;;5078475;28;20116;-53
2023/01/22 06:15:28;;;;;;;28.65;14.40;;;0.10;99.90;;;;;;5051975;28;20480;-49
2023/01/22 06:17:59;;;;;;;25.45;14.07;;;0.10;99.90;;;;;;5071737;28;20032;-57
2023/01/22 06:20:25;;;;;;;28.10;14.40;;;0.10;99.90;;;;;;5064067;28;20036;-53
2023/01/22 06:22:51;;;;;;;28.90;14.35;;;0.20;99.90;;;;;;5064314;28;20024;-48
2023/01/22 06:25:16;;;;;;;26.63;14.60;;;0.30;99.90;;;;;;5056128;28;20365;-49
2023/01/22 06:27:42;;;;;;;26.63;14.20;;;0.30;99.90;;;;;;5062953;28;20031;-45
2023/01/22 06:30:08;;;;;;;31.25;15.13;;;0.40;99.90;;;;;;5064403;28;20408;-46
2023/01/22 06:32:34;;;;;;;26.27;13.63;;;0.40;99.90;;;;;;5066331;28;20050;-50
2023/01/22 06:34:59;;;;;;;30.45;15.25;;;0.60;99.90;;;;;;5060050;28;20116;-45
2023/01/22 06:37:25;;;;;;;32.13;15.20;;;0.60;99.90;;;;;;5067430;28;20040;-49
2023/01/22 06:39:50;;;;;;;26.75;14.95;;;0.50;99.90;;;;;;5054392;28;20037;-47
2023/01/22 06:42:16;;;;;;;29.50;15.57;;;0.50;99.90;;;;;;5057209;28;20113;-52
2023/01/22 06:44:42;;;;;;;27.70;14.80;;;0.40;99.90;;;;;;5057833;28;20043;-47
2023/01/22 06:47:07;;;;;;;28.90;15.50;;;0.40;99.90;;;;;;5057956;28;20056;-48
2023/01/22 06:49:33;;;;;;;26.83;13.88;;;0.40;99.90;;;;;;5055402;28;20025;-45
2023/01/22 06:51:58;;;;;;;25.67;14.43;;;0.50;99.90;;;;;;5062369;28;20115;-45
2023/01/22 06:54:24;;;;;;;27.52;14.40;;;0.60;99.90;;;;;;5056943;28;20041;-51
2023/01/22 06:56:50;;;;;;;24.25;13.38;;;0.60;99.90;;;;;;5057683;28;20025;-45
2023/01/22 06:59:15;;;;;;;32.67;15.20;;;0.70;99.90;;;;;;5056956;28;20086;-46
2023/01/22 07:01:41;;;;;;;27.10;14.63;;;0.60;99.90;;;;;;5053284;28;20035;-44
2023/01/22 07:04:07;;;;;;;27.15;14.68;;;0.60;99.90;;;;;;5052092;28;20116;-47
2023/01/22 07:06:32;;;;;;;28.35;14.45;;;0.60;99.90;;;;;;5067084;28;20032;-48
2023/01/22 07:08:58;;;;;;;26.92;14.10;;;0.60;99.90;;;;;;5062769;28;20017;-51
2023/01/22 07:11:24;;;;;;;27.13;14.13;;;0.60;99.90;;;;;;5060005;28;20040;-45
2023/01/22 07:13:49;;;;;;;24.60;13.48;;;0.60;99.90;;;;;;5062323;28;20025;-47
2023/01/22 07:16:15;;;;;;;25.40;13.52;;;0.60;99.90;;;;;;5051978;28;20423;-45
2023/01/22 07:18:40;;;;;;;23.35;13.45;;;0.60;99.90;;;;;;5050623;28;20487;-44
2023/01/22 07:21:06;;;;;;;24.95;12.57;;;0.60;99.90;;;;;;5056887;28;20028;-46
2023/01/22 07:23:32;;;;;;;27.77;15.00;;;0.60;99.90;;;;;;5057459;28;20017;-44
2023/01/22 07:25:58;;;;;;;25.75;13.52;;;0.70;99.90;;;;;;5050555;28;20043;-44
2023/01/22 07:28:23;;;;;;;30.45;13.18;;;0.60;99.90;;;;;;5054877;28;20033;-44
2023/01/22 07:30:49;;;;;;;26.75;13.40;;;0.60;99.90;;;;;;5056967;28;20049;-44
2023/01/22 07:33:15;;;;;;;22.33;12.70;;;0.60;99.90;;;;;;5061253;28;20365;-49
2023/01/22 07:35:41;;;;;;;25.38;14.20;;;0.60;99.90;;;;;;5049913;28;20020;-47
2023/01/22 07:38:07;;;;;;;24.90;12.98;;;0.50;99.90;;;;;;5042658;28;20036;-46
2023/01/22 07:40:33;;;;;;;25.10;13.38;;;0.50;99.90;;;;;;5044242;28;20151;-46
2023/01/22 07:43:03;;;;;;;28.35;14.40;;;0.50;99.90;;;;;;5055964;28;20024;-47
2023/01/22 07:45:29;;;;;;;30.30;15.18;;;0.40;99.90;;;;;;5052724;28;20033;-46
2023/01/22 07:47:58;;;;;;;29.17;15.23;;;0.50;99.90;;;;;;5044324;28;20029;-46
2023/01/22 07:50:27;;;;;;;28.77;15.65;;;0.40;99.90;;;;;;5044568;28;20484;-47
2023/01/22 07:52:53;;;;;;;32.10;16.27;;;0.40;99.90;;;;;;5050515;28;20055;-45
2023/01/22 07:55:20;;;;;;;29.25;16.13;;;0.40;99.90;;;;;;5049846;28;20680;-57
2023/01/22 07:57:45;;;;;;;32.97;15.90;;;0.30;99.90;;;;;;5050205;28;20480;-50
2023/01/22 08:00:14;;;;;;;27.23;14.77;;;0.30;99.90;;;;;;5050573;28;20067;-54
2023/01/22 08:02:41;;;;;;;27.27;14.90;;;0.20;99.90;;;;;;5050321;28;20433;-47
2023/01/22 08:05:07;;;;;;;32.75;15.63;;;0.20;99.90;;;;;;5050721;28;20472;-46
2023/01/22 08:07:33;;;;;;;26.05;13.80;;;0.10;99.90;;;;;;5059930;28;20052;-48
2023/01/22 08:09:59;;;;;;;23.05;13.48;;;0.10;99.90;;;;;;5050263;28;20451;-50
2023/01/22 08:12:24;;;;;;;26.58;14.73;;;0.10;99.90;;;;;;5050186;28;20025;-45
2023/01/22 08:14:50;;;;;;;28.08;14.27;;;0.10;99.90;;;;;;5050143;28;20032;-46
2023/01/22 08:17:15;;;;;;;26.02;14.27;;;0.20;99.90;;;;;;5052504;28;20056;-45
2023/01/22 08:19:41;;;;;;;29.02;15.60;;;0.20;99.90;;;;;;5052167;28;20025;-51
2023/01/22 08:22:07;;;;;;;27.65;15.23;;;0.30;99.90;;;;;;5049530;28;20048;-52
2023/01/22 08:24:35;;;;;;;26.05;14.30;;;0.30;99.90;;;;;;5049738;28;20021;-48
2023/01/22 08:27:02;;;;;;;28.60;13.77;;;0.30;99.90;;;;;;5048427;28;20043;-52
2023/01/22 08:29:27;;;;;;;22.25;12.95;;;0.30;99.90;;;;;;5050743;28;20041;-54
2023/01/22 08:31:53;;;;;;;25.75;14.35;;;0.30;99.90;;;;;;5049148;28;20021;-54
2023/01/22 08:34:20;;;;;;;30.38;13.70;;;0.30;99.90;;;;;;5050779;28;20052;-44
2023/01/22 08:36:46;;;;;;;22.45;13.43;;;0.30;99.90;;;;;;5049291;28;20036;-47
2023/01/22 08:39:12;;;;;;;23.20;13.27;;;0.20;99.90;;;;;;5061018;28;20024;-48
2023/01/22 08:41:41;;;;;;;24.52;13.32;;;0.20;99.90;;;;;;5050273;28;20047;-48
2023/01/22 08:44:10;;;;;;;25.35;14.07;;;0.20;99.90;;;;;;5044185;28;20025;-52
2023/01/22 08:46:39;;;;;;;26.10;14.35;;;0.30;99.90;;;;;;5053612;28;20028;-44
2023/01/22 08:49:05;;;;;;;22.98;13.40;;;0.20;99.90;;;;;;5049180;28;20036;-44
2023/01/22 08:51:32;;;;;;;27.52;13.77;;;0.40;99.90;;;;;;5046864;28;20124;-51
2023/01/22 08:53:58;;;;;;;27.67;13.65;;;0.50;99.90;;;;;;5049264;28;20086;-44
2023/01/22 08:56:23;;;;;;;27.08;14.13;;;0.80;99.90;;;;;;5049686;28;20036;-44
2023/01/22 08:58:50;;;;;;;24.13;13.38;;;0.90;99.90;;;;;;5053471;28;20510;-44
2023/01/22 09:01:19;;;;;;;24.15;13.75;;;1.20;99.90;;;;;;5053804;28;20036;-44
2023/01/22 09:03:45;;;;;;;28.05;13.75;;;1.40;99.90;;;;;;5063120;28;20099;-45
2023/01/22 09:06:11;;;;;;;24.90;12.48;;;1.90;99.90;;;;;;5063736;28;20119;-47
2023/01/22 09:08:37;;;;;;;23.42;12.38;;;2.30;99.90;;;;;;5065030;28;20142;-48
2023/01/22 09:11:03;;;;;;;23.45;12.25;;;2.40;99.90;;;;;;5062424;28;20379;-50
2023/01/22 09:13:29;;;;;;;21.27;11.80;;;2.40;99.90;;;;;;5056817;28;20025;-48
2023/01/22 09:15:56;;;;;;;20.70;12.55;;;2.40;99.90;;;;;;5054214;28;20450;-45
2023/01/22 09:18:22;;;;;;;22.02;13.13;;;2.30;99.90;;;;;;5045520;28;20029;-46
2023/01/22 09:20:47;;;;;;;26.73;14.15;;;2.20;99.90;;;;;;5050132;28;20021;-49
2023/01/22 09:23:13;;;;;;;24.60;12.95;;;2.30;99.90;;;;;;5050382;28;20029;-52
2023/01/22 09:25:39;;;;;;;24.10;12.20;;;2.40;99.90;;;;;;5049318;28;20080;-45
2023/01/22 09:28:07;;;;;;;23.35;12.82;;;2.60;99.90;;;;;;5051463;28;20376;-45
2023/01/22 09:30:34;;;;;;;26.55;13.40;;;2.70;99.90;;;;;;5052601;28;20048;-47
2023/01/22 09:33:00;;;;;;;24.05;14.38;;;2.90;99.90;;;;;;5050679;28;20476;-45
2023/01/22 09:35:26;;;;;;;26.67;15.00;;;3.00;99.90;;;;;;5052320;28;20040;-47
2023/01/22 09:37:52;;;;;;;31.00;18.27;;;3.10;99.90;;;;;;5053904;28;20024;-46
2023/01/22 09:40:30;;;;;;;30.77;17.55;;;3.30;99.90;;;;;;5051865;28;20392;-44
2023/01/22 09:43:12;;;;;;;33.05;18.00;;;3.40;99.90;;;;;;5049809;28;20075;-44
2023/01/22 09:45:40;;;;;;;31.10;18.38;;;3.50;99.90;;;;;;5062607;28;20028;-44
2023/01/22 09:48:13;;;;;;;30.45;16.83;;;3.50;99.90;;;;;;5052169;28;20025;-44
2023/01/22 09:50:40;;;;;;;23.45;14.80;;;3.50;99.90;;;;;;5052188;28;20040;-49
2023/01/22 09:53:11;;;;;;;23.48;13.77;;;3.40;99.90;;;;;;5052289;28;20472;-44
2023/01/22 09:55:44;;;;;;;21.52;13.73;;;3.30;99.90;;;;;;5050997;28;20086;-44
2023/01/22 09:58:15;;;;;;;25.13;14.50;;;3.20;99.90;;;;;;5050176;28;20021;-44
2023/01/22 10:00:56;;;;;;;26.63;15.07;;;3.20;99.90;;;;;;5050149;28;20071;-45
2023/01/22 10:03:36;;;;;;;21.75;12.85;;;4.00;99.90;;;;;;5050018;28;20380;-44
2023/01/22 10:06:09;;;;;;;22.45;14.02;;;5.70;99.90;;;;;;5049766;28;20687;-44
2023/01/22 10:09:02;;;;;;;24.67;13.85;;;6.30;99.90;;;;;;5049887;28;20036;-44
2023/01/22 10:11:28;;;;;;;26.45;14.00;;;6.50;99.90;;;;;;5050940;28;20051;-46
2023/01/22 10:13:57;;;;;;;23.77;15.20;;;5.90;99.90;;;;;;5052098;28;20415;-44
2023/01/22 10:16:23;;;;;;;23.48;14.30;;;6.30;99.90;;;;;;5061483;28;20025;-44
2023/01/22 10:18:52;;;;;;;28.35;14.18;;;7.90;99.90;;;;;;5071961;28;20020;-44
2023/01/22 10:21:22;;;;;;;21.52;14.10;;;9.80;95.20;;;;;;5072059;28;20048;-45
2023/01/22 10:23:49;;;;;;;21.15;13.80;;;11.30;90.80;;;;;;5071001;28;20032;-45
2023/01/22 10:26:24;;;;;;;21.55;12.77;;;13.20;85.50;;;;;;5054555;28;20027;-45
2023/01/22 10:28:55;;;;;;;23.02;13.38;;;14.80;79.70;;;;;;5056644;28;20032;-46
2023/01/22 10:31:35;;;;;;;19.85;12.88;;;16.40;69.30;;;;;;5040112;28;20045;-45
2023/01/22 10:34:08;;;;;;;19.75;13.40;;;17.60;65.30;;;;;;5051877;28;20056;-44
2023/01/22 10:36:34;;;;;;;21.40;14.95;;;18.30;61.00;;;;;;5056820;28;20486;-44
2023/01/22 10:39:09;;;;;;;16.08;10.77;;;19.50;58.60;;;;;;5058329;28;20017;-46
2023/01/22 10:41:35;;;;;;;14.52;10.18;;;19.80;53.80;;;;;;5051132;28;20029;-44
2023/01/22 10:44:21;;;;;;;19.25;13.25;;;19.90;51.70;;;;;;5049948;28;20020;-46
2023/01/22 10:46:49;;;;;;;18.02;12.60;;;20.10;51.40;;;;;;5047176;28;20104;-47
2023/01/22 10:49:26;;;;;;;19.05;13.02;;;19.90;52.90;;;;;;5057969;28;20077;-45
2023/01/22 10:51:55;;;;;;;16.13;12.13;;;19.70;51.60;;;;;;5044645;28;20038;-40
2023/01/22 10:54:29;;;;;;;16.92;12.40;;;19.10;50.90;;;;;;5038728;28;20037;-44
2023/01/22 10:57:20;;;;;;;17.98;13.15;;;18.70;53.20;;;;;;5046416;28;20033;-43
2023/01/22 11:00:14;;;;;;;15.57;11.90;;;19.60;53.50;;;;;;5049541;28;20025;-44
2023/01/22 11:02:42;;;;;;;13.32;9.52;;;20.90;51.10;;;;;;5042833;28;20550;-48
2023/01/22 11:05:22;;;;;;;13.85;8.35;;;21.50;49.30;;;;;;5049751;28;20108;-46
2023/01/22 11:07:56;;;;;;;12.25;9.10;;;22.00;48.50;;;;;;5051227;28;20053;-46
2023/01/22 11:10:39;;;;;;;10.98;8.55;;;21.90;48.10;;;;;;5050669;28;20358;-53
2023/01/22 11:13:19;;;;;;;12.27;7.80;;;22.10;46.60;;;;;;5050522;28;20025;-50
2023/01/22 11:16:12;;;;;;;13.70;8.27;;;22.60;46.30;;;;;;5053791;28;20023;-51
2023/01/22 11:18:42;;;;;;;11.43;8.82;;;23.10;45.30;;;;;;5069990;28;20036;-53
2023/01/22 11:21:18;;;;;;;12.75;9.23;;;23.00;45.70;;;;;;5070276;28;20376;-47
2023/01/22 11:24:03;;;;;;;12.50;9.07;;;22.90;45.00;;;;;;5070199;28;20107;-51
2023/01/22 11:26:54;;;;;;;11.65;9.20;;;23.10;44.20;;;;;;5037511;28;20033;-52
2023/01/22 11:29:41;;;;;;;14.55;10.57;;;23.20;44.20;;;;;;5068305;28;20046;-47
2023/01/22 11:32:25;;;;;;;12.23;9.68;;;23.40;43.90;;;;;;5070798;28;20498;-51
2023/01/22 11:35:12;;;;;;;12.07;9.90;;;23.50;45.80;;;;;;5045573;28;20245;-50
2023/01/22 11:37:52;;;;;;;15.70;11.45;;;23.40;42.90;;;;;;5070737;28;20020;-48
2023/01/22 11:40:23;;;;;;;12.82;9.70;;;22.80;45.10;;;;;;5070830;28;20033;-49
2023/01/22 11:42:58;;;;;;;11.98;9.63;;;23.10;44.20;;;;;;5070594;28;20033;-47
2023/01/22 11:46:01;;;;;;;13.02;8.57;;;23.40;44.00;;;;;;5070573;28;20096;-47
2023/01/22 11:48:43;;;;;;;10.13;7.15;;;23.10;45.10;;;;;;5044985;28;20025;-46
2023/01/22 11:51:27;;;;;;;12.85;8.05;;;22.50;43.40;;;;;;5070277;28;20044;-44
2023/01/22 11:54:18;;;;;;;9.57;6.68;;;22.00;46.90;;;;;;5070787;28;20020;-45
2023/01/22 11:57:07;;;;;;;9.38;6.30;;;22.60;44.70;;;;;;5070562;28;20063;-45
2023/01/22 11:59:35;;;;;;;;;;;22.70;43.00;;;;;;5070814;28;20127;-44
2023/01/22 12:02:09;;;;;;;10.15;7.50;;;22.50;44.00;;;;;;5070676;28;19911;-49
2023/01/22 12:04:59;;;;;;;12.93;7.50;;;22.80;45.10;;;;;;5070678;28;20032;-45
2023/01/22 12:07:54;;;;;;;10.63;6.72;;;23.40;44.30;;;;;;5048844;28;20428;-52
2023/01/22 12:10:32;;;;;;;8.57;6.82;;;23.90;43.40;;;;;;5069602;28;20057;-47
2023/01/22 12:13:18;;;;;;;9.07;6.60;;;23.80;43.50;;;;;;5070045;28;20058;-45
2023/01/22 12:15:54;;;;;;;9.05;6.40;;;23.80;43.00;;;;;;5051803;28;20096;-45
2023/01/22 12:18:28;;;;;;;9.77;6.30;;;24.30;42.40;;;;;;5070332;28;20035;-46
2023/01/22 12:21:25;;;;;;;7.00;5.53;;;24.20;42.10;;;;;;5070314;28;20024;-48
2023/01/22 12:24:03;;;;;;;7.93;4.97;;;24.30;41.50;;;;;;5064944;28;20886;-48
2023/01/22 12:26:46;;;;;;;6.90;4.93;;;24.50;41.70;;;;;;5070362;28;20024;-50
2023/01/22 12:29:18;;;;;;;8.10;5.28;;;23.70;42.50;;;;;;5071913;28;20106;-48
2023/01/22 12:31:57;;;;;;;7.97;5.38;;;22.60;44.40;;;;;;5074050;28;20036;-44
2023/01/22 12:34:29;;;;;;;8.87;6.10;;;22.20;43.80;;;;;;5073945;28;20024;-44
2023/01/22 12:36:56;;;;;;;7.70;4.80;;;22.60;44.00;;;;;;5072701;28;20261;-44
2023/01/22 12:39:36;;;;;;;9.55;6.30;;;22.10;43.40;;;;;;5072669;28;20082;-45
2023/01/22 12:42:30;;;;;;;13.70;5.80;;;20.00;44.50;;;;;;5074234;28;20013;-45
2023/01/22 12:45:01;;;;;;;4.15;2.33;;;17.30;48.60;;;;;;5073989;28;20162;-46
2023/01/22 12:47:57;;;;;;;4.43;2.58;;;14.60;52.80;;;;;;5073716;28;20045;-45
2023/01/22 12:50:25;;;;;;;5.93;2.17;;;13.10;58.90;;;;;;5073803;28;20036;-45
2023/01/22 12:53:18;;;;;;;4.70;2.20;;;12.30;60.10;;;;;;5073745;28;20024;-45
2023/01/22 12:55:55;;;;;;;12.52;3.90;;;11.60;61.30;;;;;;5073588;28;20089;-45